Seacod — DDPW — position and weather

sailwx.info

Track history (hours):
 
Tides and Currents Weather Stations Pressure Air Temp Water Temp Dewpoint Dewpoint Depression Visibility Wind Speed Wind Dir Waves Ship Positions

Seacod

Last reported at 2015-Apr-19 08:33 UTC. Time now 2015-Apr-19 09:35 UTC.
Position N 51°28' E 000°16'.

Length 188 m; draft 10.1 m.

Type: Ship. MMSI: 218019000.

Date/timePositionNaut miles runAvg speedWind from/ knotsBaromVisibWave heightAir tempDewpointWater temp
2015-Apr-19 08:33N 51°28' E 000°16'0 0.0
2015-Apr-19 07:34N 51°28' E 000°16'0 0.0
2015-Apr-19 06:31N 51°28' E 000°16'0 0.0
2015-Apr-19 05:32N 51°28' E 000°16'0 0.0
2015-Apr-19 04:33N 51°28' E 000°16'0 0.0
2015-Apr-19 03:33N 51°28' E 000°16'0 0.0
2015-Apr-19 02:31N 51°28' E 000°16'0 0.0
2015-Apr-19 01:34N 51°28' E 000°16'0 0.0
2015-Apr-19 00:33N 51°28' E 000°16'0 0.0
2015-Apr-18 23:33N 51°28' E 000°16'0 0.0
2015-Apr-18 22:34N 51°28' E 000°16'0 0.0
2015-Apr-18 21:33N 51°28' E 000°16'0 0.0
2015-Apr-18 20:33N 51°28' E 000°16'0 0.0
2015-Apr-18 19:34N 51°28' E 000°16'0 0.0
2015-Apr-18 18:34N 51°28' E 000°16'0 0.0
2015-Apr-18 17:31N 51°28' E 000°16'0 0.0
2015-Apr-18 16:34N 51°28' E 000°16'0 0.0
2015-Apr-18 15:33N 51°28' E 000°16'0 0.0
2015-Apr-18 14:34N 51°28' E 000°16'0 0.0
2015-Apr-18 13:34N 51°28' E 000°16'0 0.0
2015-Apr-18 12:34N 51°28' E 000°16'0 0.0
2015-Apr-18 11:34N 51°28' E 000°16'3 2.8
2015-Apr-18 10:34N 51°27' E 000°20'7 7.3
2015-Apr-18 09:34N 51°30' E 000°31'1010.3
2015-Apr-18 08:34N 51°29' E 000°47'5 5.2
2015-Apr-18 07:31N 51°31' E 000°56'0 0.0
2015-Apr-18 06:31N 51°31' E 000°56'0 0.1
2015-Apr-18 05:28N 51°31' E 000°56'0 0.1
2015-Apr-18 04:31N 51°31' E 000°56'0 0.0
2015-Apr-18 03:31N 51°31' E 000°56'0 0.0
2015-Apr-18 02:28N 51°31' E 000°56'0 0.0
2015-Apr-18 01:33N 51°31' E 000°56'0 0.1
2015-Apr-18 00:34N 51°31' E 000°56'0 0.0
2015-Apr-17 23:31N 51°31' E 000°56'0 0.0
2015-Apr-17 22:31N 51°31' E 000°56'0 0.0
2015-Apr-17 21:34N 51°31' E 000°56'0 0.0
2015-Apr-17 20:28N 51°31' E 000°56'0 0.0
2015-Apr-17 19:25N 51°31' E 000°56'0 0.0
2015-Apr-17 18:34N 51°31' E 000°56'0 0.0
2015-Apr-17 17:34N 51°31' E 000°56'0 0.1
2015-Apr-17 16:25N 51°31' E 000°56'0 0.0
2015-Apr-17 15:31N 51°31' E 000°56'0 0.0
2015-Apr-17 14:33N 51°31' E 000°56'0 0.0
2015-Apr-17 13:33N 51°31' E 000°56'0 0.1
2015-Apr-17 12:33N 51°31' E 000°56'0 0.1
2015-Apr-17 11:33N 51°31' E 000°56'0 0.0
2015-Apr-17 10:33N 51°31' E 000°56'0 0.0
2015-Apr-17 09:33N 51°31' E 000°56'0 0.0
2015-Apr-17 08:30N 51°31' E 000°56'0 0.0
2015-Apr-17 07:33N 51°31' E 000°56'0 0.0
2015-Apr-17 06:33N 51°31' E 000°56'0 0.0
2015-Apr-17 05:27N 51°31' E 000°56'0 0.1
2015-Apr-17 04:33N 51°31' E 000°56'0 0.0
2015-Apr-17 03:34N 51°31' E 000°56'0 0.0
2015-Apr-17 02:32N 51°31' E 000°56'0 0.0
2015-Apr-17 01:32N 51°31' E 000°56'0 0.0
2015-Apr-17 00:32N 51°31' E 000°56'0 0.1
2015-Apr-16 23:26N 51°31' E 000°56'0 0.0
2015-Apr-16 22:23N 51°31' E 000°56'0 0.0
2015-Apr-16 21:23N 51°31' E 000°56'0 0.0
2015-Apr-16 20:26N 51°31' E 000°56'0 0.0
2015-Apr-16 19:32N 51°31' E 000°56'0 0.0
2015-Apr-16 18:32N 51°31' E 000°56'0 0.0
2015-Apr-16 17:32N 51°31' E 000°56'0 0.0
2015-Apr-16 16:32N 51°31' E 000°56'0 0.1
2015-Apr-16 15:32N 51°31' E 000°56'0 0.0
2015-Apr-16 14:32N 51°31' E 000°56'0 0.0
2015-Apr-16 13:32N 51°31' E 000°56'0 0.0
2015-Apr-16 12:32N 51°31' E 000°56'0 0.1
2015-Apr-16 11:32N 51°31' E 000°56'0 0.1
2015-Apr-16 10:32N 51°31' E 000°56'0 0.0
2015-Apr-16 09:32N 51°31' E 000°56'0 0.4
2015-Apr-16 08:33N 51°31' E 000°55'8 7.9
2015-Apr-16 07:33N 51°30' E 000°43'4 3.7
2015-Apr-16 06:33N 51°30' E 000°37'1110.5
2015-Apr-16 05:33N 51°30' E 000°54'2 1.8
2015-Apr-16 04:32N 51°31' E 000°56'0 0.0
2015-Apr-16 03:32N 51°31' E 000°56'0 0.0
2015-Apr-16 02:32N 51°31' E 000°56'0 0.0
2015-Apr-16 01:32N 51°31' E 000°56'0 0.1
2015-Apr-16 00:26N 51°31' E 000°56'0 0.0
2015-Apr-15 23:25N 51°31' E 000°56'0 0.1
2015-Apr-15 22:31N 51°31' E 000°56'0 0.0
2015-Apr-15 21:31N 51°31' E 000°56'0 0.0
2015-Apr-15 20:28N 51°31' E 000°56'0 0.0
2015-Apr-15 19:31N 51°31' E 000°56'0 0.1
2015-Apr-15 18:31N 51°31' E 000°56'0 0.0
2015-Apr-15 17:31N 51°31' E 000°56'0 0.0
2015-Apr-15 16:31N 51°31' E 000°56'0 0.0
2015-Apr-15 15:31N 51°31' E 000°56'0 0.0
2015-Apr-15 14:28N 51°31' E 000°56'0 0.0
2015-Apr-15 13:31N 51°31' E 000°56'0 0.0
2015-Apr-15 12:31N 51°31' E 000°56'0 0.0
2015-Apr-15 11:28N 51°31' E 000°56'3 3.1
2015-Apr-15 10:33N 51°29' E 000°53'1313.1
2015-Apr-15 09:33N 51°30' E 000°31'8 7.7
2015-Apr-15 08:34N 51°27' E 000°20'8 7.6
2015-Apr-15 07:34N 51°30' E 000°31'1111.3
2015-Apr-15 06:34N 51°29' E 000°49'1110.7
2015-Apr-15 05:33N 51°32' E 001°06'1111.1
2015-Apr-15 04:34N 51°38' E 001°21'1111.1
2015-Apr-15 03:33N 51°47' E 001°32'8 8.4
2015-Apr-15 02:33N 51°54' E 001°40'0 0.1
2015-Apr-15 01:31N 51°54' E 001°40'0 0.0
2015-Apr-15 00:30N 51°54' E 001°40'0 0.0
2015-Apr-14 23:33N 51°54' E 001°40'0 0.0
2015-Apr-14 22:30N 51°54' E 001°40'0 0.0
2015-Apr-14 21:30N 51°54' E 001°40'0 0.0
2015-Apr-14 20:33N 51°54' E 001°40'0 0.1
2015-Apr-14 19:33N 51°54' E 001°40'0 0.0
2015-Apr-14 18:33N 51°54' E 001°40'0 0.0
2015-Apr-14 17:33N 51°54' E 001°40'0 0.1
2015-Apr-14 16:33N 51°54' E 001°40'0 0.0
2015-Apr-14 15:31N 51°54' E 001°40'0 0.0
2015-Apr-14 14:34N 51°54' E 001°40'0 0.1
2015-Apr-14 13:34N 51°54' E 001°40'0 0.0
2015-Apr-14 12:34N 51°54' E 001°40'0 0.0
2015-Apr-14 11:34N 51°54' E 001°40'0 0.0
2015-Apr-14 10:33N 51°54' E 001°40'0 0.0
2015-Apr-14 09:33N 51°54' E 001°40'0 0.0
2015-Apr-14 08:33N 51°54' E 001°40'0 0.1
2015-Apr-14 07:33N 51°54' E 001°40'1111.2
2015-Apr-14 06:33N 51°51' E 001°58'1413.4
2015-Apr-14 05:32N 51°59' E 002°16'2813.9
2015-Apr-14 03:34N 52°20' E 002°43'7512.3
2015-Apr-13 21:30N 53°29' E 003°34'35911.6
2015-Apr-12 14:31N 58°02' E 010°29'1010.3
2015-Apr-12 13:33N 58°06' E 010°45'1010.1
2015-Apr-12 12:34N 58°11' E 011°02'9 8.7
2015-Apr-12 11:33N 58°16' E 011°15'8 0.5
2015-Apr-11 19:09N 58°21' E 011°26'0 0.0
2015-Apr-11 18:33N 58°21' E 011°26'0 0.0
2015-Apr-11 17:12N 58°21' E 011°26'0 0.0
2015-Apr-11 16:30N 58°21' E 011°26'0 0.0
2015-Apr-11 14:06N 58°21' E 011°26'0 0.0
2015-Apr-11 10:09N 58°21' E 011°26'0 0.0
2015-Apr-11 04:25N 58°21' E 011°26'0 0.0
2015-Apr-11 02:04N 58°21' E 011°26'0 0.0
2015-Apr-10 22:07N 58°21' E 011°26'0 0.1
2015-Apr-10 21:33N 58°21' E 011°26'6 5.7
2015-Apr-10 20:33N 58°18' E 011°18'9 9.1
2015-Apr-10 19:33N 58°12' E 011°04'6 6.2
2015-Apr-10 18:33N 58°09' E 010°54'1312.8
2015-Apr-10 17:33N 58°03' E 010°33'1413.7
2015-Apr-10 16:32N 57°56' E 010°10'1413.7
2015-Apr-10 15:33N 57°49' E 009°48'1413.7
2015-Apr-10 14:30N 57°42' E 009°26'1313.7
2015-Apr-10 13:32N 57°35' E 009°04'32314.6
2015-Apr-09 15:29N 55°06' E 000°28'1314.4
2015-Apr-09 14:33N 55°01' E 000°06'1414.3
2015-Apr-09 13:33N 54°55' W 000°16'1414.1
2015-Apr-09 12:32N 54°49' W 000°39'1413.8
2015-Apr-09 11:32N 54°44' W 001°01'9 8.6
2015-Apr-09 10:31N 54°37' W 001°10'0 0.0
2015-Apr-09 09:33N 54°37' W 001°10'  
Track history (hours):
 
Tides and Currents Weather Stations Pressure Air Temp Water Temp Dewpoint Dewpoint Depression Visibility Wind Speed Wind Dir Waves Ship Positions

Seacod

Last reported at 2015-Apr-19 08:33 UTC. Time now 2015-Apr-19 09:35 UTC.
Position N 51°28' E 000°16'.

Length 188 m; draft 10.1 m.

Type: Ship. MMSI: 218019000.

Date/timePositionNaut miles runAvg speedWind from/ knotsBaromVisibWave heightAir tempDewpointWater temp
2015-Apr-19 08:33N 51°28' E 000°16'0 0.0
2015-Apr-19 07:34N 51°28' E 000°16'0 0.0
2015-Apr-19 06:31N 51°28' E 000°16'0 0.0
2015-Apr-19 05:32N 51°28' E 000°16'0 0.0
2015-Apr-19 04:33N 51°28' E 000°16'0 0.0
2015-Apr-19 03:33N 51°28' E 000°16'0 0.0
2015-Apr-19 02:31N 51°28' E 000°16'0 0.0
2015-Apr-19 01:34N 51°28' E 000°16'0 0.0
2015-Apr-19 00:33N 51°28' E 000°16'0 0.0
2015-Apr-18 23:33N 51°28' E 000°16'0 0.0
2015-Apr-18 22:34N 51°28' E 000°16'0 0.0
2015-Apr-18 21:33N 51°28' E 000°16'0 0.0
2015-Apr-18 20:33N 51°28' E 000°16'0 0.0
2015-Apr-18 19:34N 51°28' E 000°16'0 0.0
2015-Apr-18 18:34N 51°28' E 000°16'0 0.0
2015-Apr-18 17:31N 51°28' E 000°16'0 0.0
2015-Apr-18 16:34N 51°28' E 000°16'0 0.0
2015-Apr-18 15:33N 51°28' E 000°16'0 0.0
2015-Apr-18 14:34N 51°28' E 000°16'0 0.0
2015-Apr-18 13:34N 51°28' E 000°16'0 0.0
2015-Apr-18 12:34N 51°28' E 000°16'0 0.0
2015-Apr-18 11:34N 51°28' E 000°16'3 2.8
2015-Apr-18 10:34N 51°27' E 000°20'7 7.3
2015-Apr-18 09:34N 51°30' E 000°31'1010.3
2015-Apr-18 08:34N 51°29' E 000°47'5 5.2
2015-Apr-18 07:31N 51°31' E 000°56'0 0.0
2015-Apr-18 06:31N 51°31' E 000°56'0 0.1
2015-Apr-18 05:28N 51°31' E 000°56'0 0.1
2015-Apr-18 04:31N 51°31' E 000°56'0 0.0
2015-Apr-18 03:31N 51°31' E 000°56'0 0.0
2015-Apr-18 02:28N 51°31' E 000°56'0 0.0
2015-Apr-18 01:33N 51°31' E 000°56'0 0.1
2015-Apr-18 00:34N 51°31' E 000°56'0 0.0
2015-Apr-17 23:31N 51°31' E 000°56'0 0.0
2015-Apr-17 22:31N 51°31' E 000°56'0 0.0
2015-Apr-17 21:34N 51°31' E 000°56'0 0.0
2015-Apr-17 20:28N 51°31' E 000°56'0 0.0
2015-Apr-17 19:25N 51°31' E 000°56'0 0.0
2015-Apr-17 18:34N 51°31' E 000°56'0 0.0
2015-Apr-17 17:34N 51°31' E 000°56'0 0.1
2015-Apr-17 16:25N 51°31' E 000°56'0 0.0
2015-Apr-17 15:31N 51°31' E 000°56'0 0.0
2015-Apr-17 14:33N 51°31' E 000°56'0 0.0
2015-Apr-17 13:33N 51°31' E 000°56'0 0.1
2015-Apr-17 12:33N 51°31' E 000°56'0 0.1
2015-Apr-17 11:33N 51°31' E 000°56'0 0.0
2015-Apr-17 10:33N 51°31' E 000°56'0 0.0
2015-Apr-17 09:33N 51°31' E 000°56'0 0.0
2015-Apr-17 08:30N 51°31' E 000°56'0 0.0
2015-Apr-17 07:33N 51°31' E 000°56'0 0.0
2015-Apr-17 06:33N 51°31' E 000°56'0 0.0
2015-Apr-17 05:27N 51°31' E 000°56'0 0.1
2015-Apr-17 04:33N 51°31' E 000°56'0 0.0
2015-Apr-17 03:34N 51°31' E 000°56'0 0.0
2015-Apr-17 02:32N 51°31' E 000°56'0 0.0
2015-Apr-17 01:32N 51°31' E 000°56'0 0.0
2015-Apr-17 00:32N 51°31' E 000°56'0 0.1
2015-Apr-16 23:26N 51°31' E 000°56'0 0.0
2015-Apr-16 22:23N 51°31' E 000°56'0 0.0
2015-Apr-16 21:23N 51°31' E 000°56'0 0.0
2015-Apr-16 20:26N 51°31' E 000°56'0 0.0
2015-Apr-16 19:32N 51°31' E 000°56'0 0.0
2015-Apr-16 18:32N 51°31' E 000°56'0 0.0
2015-Apr-16 17:32N 51°31' E 000°56'0 0.0
2015-Apr-16 16:32N 51°31' E 000°56'0 0.1
2015-Apr-16 15:32N 51°31' E 000°56'0 0.0
2015-Apr-16 14:32N 51°31' E 000°56'0 0.0
2015-Apr-16 13:32N 51°31' E 000°56'0 0.0
2015-Apr-16 12:32N 51°31' E 000°56'0 0.1
2015-Apr-16 11:32N 51°31' E 000°56'0 0.1
2015-Apr-16 10:32N 51°31' E 000°56'0 0.0
2015-Apr-16 09:32N 51°31' E 000°56'0 0.4
2015-Apr-16 08:33N 51°31' E 000°55'8 7.9
2015-Apr-16 07:33N 51°30' E 000°43'4 3.7
2015-Apr-16 06:33N 51°30' E 000°37'1110.5
2015-Apr-16 05:33N 51°30' E 000°54'2 1.8
2015-Apr-16 04:32N 51°31' E 000°56'0 0.0
2015-Apr-16 03:32N 51°31' E 000°56'0 0.0
2015-Apr-16 02:32N 51°31' E 000°56'0 0.0
2015-Apr-16 01:32N 51°31' E 000°56'0 0.1
2015-Apr-16 00:26N 51°31' E 000°56'0 0.0
2015-Apr-15 23:25N 51°31' E 000°56'0 0.1
2015-Apr-15 22:31N 51°31' E 000°56'0 0.0
2015-Apr-15 21:31N 51°31' E 000°56'0 0.0
2015-Apr-15 20:28N 51°31' E 000°56'0 0.0
2015-Apr-15 19:31N 51°31' E 000°56'0 0.1
2015-Apr-15 18:31N 51°31' E 000°56'0 0.0
2015-Apr-15 17:31N 51°31' E 000°56'0 0.0
2015-Apr-15 16:31N 51°31' E 000°56'0 0.0
2015-Apr-15 15:31N 51°31' E 000°56'0 0.0
2015-Apr-15 14:28N 51°31' E 000°56'0 0.0
2015-Apr-15 13:31N 51°31' E 000°56'0 0.0
2015-Apr-15 12:31N 51°31' E 000°56'0 0.0
2015-Apr-15 11:28N 51°31' E 000°56'3 3.1
2015-Apr-15 10:33N 51°29' E 000°53'1313.1
2015-Apr-15 09:33N 51°30' E 000°31'8 7.7
2015-Apr-15 08:34N 51°27' E 000°20'8 7.6
2015-Apr-15 07:34N 51°30' E 000°31'1111.3
2015-Apr-15 06:34N 51°29' E 000°49'1110.7
2015-Apr-15 05:33N 51°32' E 001°06'1111.1
2015-Apr-15 04:34N 51°38' E 001°21'1111.1
2015-Apr-15 03:33N 51°47' E 001°32'8 8.4
2015-Apr-15 02:33N 51°54' E 001°40'0 0.1
2015-Apr-15 01:31N 51°54' E 001°40'0 0.0
2015-Apr-15 00:30N 51°54' E 001°40'0 0.0
2015-Apr-14 23:33N 51°54' E 001°40'0 0.0
2015-Apr-14 22:30N 51°54' E 001°40'0 0.0
2015-Apr-14 21:30N 51°54' E 001°40'0 0.0
2015-Apr-14 20:33N 51°54' E 001°40'0 0.1
2015-Apr-14 19:33N 51°54' E 001°40'0 0.0
2015-Apr-14 18:33N 51°54' E 001°40'0 0.0
2015-Apr-14 17:33N 51°54' E 001°40'0 0.1
2015-Apr-14 16:33N 51°54' E 001°40'0 0.0
2015-Apr-14 15:31N 51°54' E 001°40'0 0.0
2015-Apr-14 14:34N 51°54' E 001°40'0 0.1
2015-Apr-14 13:34N 51°54' E 001°40'0 0.0
2015-Apr-14 12:34N 51°54' E 001°40'0 0.0
2015-Apr-14 11:34N 51°54' E 001°40'0 0.0
2015-Apr-14 10:33N 51°54' E 001°40'0 0.0
2015-Apr-14 09:33N 51°54' E 001°40'0 0.0
2015-Apr-14 08:33N 51°54' E 001°40'0 0.1
2015-Apr-14 07:33N 51°54' E 001°40'1111.2
2015-Apr-14 06:33N 51°51' E 001°58'1413.4
2015-Apr-14 05:32N 51°59' E 002°16'2813.9
2015-Apr-14 03:34N 52°20' E 002°43'7512.3
2015-Apr-13 21:30N 53°29' E 003°34'35911.6
2015-Apr-12 14:31N 58°02' E 010°29'1010.3
2015-Apr-12 13:33N 58°06' E 010°45'1010.1
2015-Apr-12 12:34N 58°11' E 011°02'9 8.7
2015-Apr-12 11:33N 58°16' E 011°15'8 0.5
2015-Apr-11 19:09N 58°21' E 011°26'0 0.0
2015-Apr-11 18:33N 58°21' E 011°26'0 0.0
2015-Apr-11 17:12N 58°21' E 011°26'0 0.0
2015-Apr-11 16:30N 58°21' E 011°26'0 0.0
2015-Apr-11 14:06N 58°21' E 011°26'0 0.0
2015-Apr-11 10:09N 58°21' E 011°26'0 0.0
2015-Apr-11 04:25N 58°21' E 011°26'0 0.0
2015-Apr-11 02:04N 58°21' E 011°26'0 0.0
2015-Apr-10 22:07N 58°21' E 011°26'0 0.1
2015-Apr-10 21:33N 58°21' E 011°26'6 5.7
2015-Apr-10 20:33N 58°18' E 011°18'9 9.1
2015-Apr-10 19:33N 58°12' E 011°04'6 6.2
2015-Apr-10 18:33N 58°09' E 010°54'1312.8
2015-Apr-10 17:33N 58°03' E 010°33'1413.7
2015-Apr-10 16:32N 57°56' E 010°10'1413.7
2015-Apr-10 15:33N 57°49' E 009°48'1413.7
2015-Apr-10 14:30N 57°42' E 009°26'1313.7
2015-Apr-10 13:32N 57°35' E 009°04'32314.6
2015-Apr-09 15:29N 55°06' E 000°28'1314.4
2015-Apr-09 14:33N 55°01' E 000°06'1414.3
2015-Apr-09 13:33N 54°55' W 000°16'1414.1
2015-Apr-09 12:32N 54°49' W 000°39'1413.8
2015-Apr-09 11:32N 54°44' W 001°01'9 8.6
2015-Apr-09 10:31N 54°37' W 001°10'0 0.0
2015-Apr-09 09:33N 54°37' W 001°10'  

Dump ship's entire track history